createdAt,value
2018-12-09T00:00:25.464Z,100542.35
2018-12-09T00:02:54.239Z,100512.30
2018-12-09T00:05:22.968Z,100530.83
2018-12-09T00:07:51.606Z,100529.07
2018-12-09T00:10:20.223Z,100545.91
2018-12-09T00:12:48.853Z,100492.89
2018-12-09T00:15:17.471Z,100527.91
2018-12-09T00:17:46.093Z,100510.80
2018-12-09T00:20:14.746Z,100514.16
2018-12-09T00:22:43.378Z,100530.55
2018-12-09T00:25:12.043Z,100522.73
2018-12-09T00:27:40.697Z,100549.19
2018-12-09T00:30:09.441Z,100535.60
2018-12-09T00:32:38.095Z,100520.81
2018-12-09T00:35:07.152Z,100540.27
2018-12-09T00:37:35.802Z,100527.16
2018-12-09T00:40:05.044Z,100524.11
2018-12-09T00:42:33.662Z,100521.11
2018-12-09T00:45:02.299Z,100546.26
2018-12-09T00:47:30.909Z,100527.16
2018-12-09T00:49:59.511Z,100573.63
2018-12-09T00:52:28.144Z,100544.47
2018-12-09T00:54:56.801Z,100527.85
2018-12-09T00:57:25.438Z,100534.37
2018-12-09T00:59:54.078Z,100539.58
2018-12-09T01:02:22.693Z,100542.70
2018-12-09T01:04:51.341Z,100545.25
2018-12-09T01:07:20.030Z,100553.06
2018-12-09T01:09:48.630Z,100563.56
2018-12-09T01:12:17.261Z,100544.56
2018-12-09T01:14:46.003Z,100557.14
2018-12-09T01:17:14.631Z,100531.98
2018-12-09T01:19:43.360Z,100543.26
2018-12-09T01:22:11.973Z,100533.58
2018-12-09T01:24:40.587Z,100551.83
2018-12-09T01:27:09.217Z,100545.61
2018-12-09T01:29:37.833Z,100543.78
2018-12-09T01:32:06.523Z,100545.45
2018-12-09T01:34:35.163Z,100535.41
2018-12-09T01:37:03.775Z,100553.56
2018-12-09T01:39:32.406Z,100549.36
2018-12-09T01:42:01.037Z,100548.70
2018-12-09T01:44:30.114Z,100565.02
2018-12-09T01:46:58.740Z,100539.97
2018-12-09T01:49:27.353Z,100569.58
2018-12-09T01:51:55.991Z,100564.07
2018-12-09T01:54:24.624Z,100583.22
2018-12-09T01:56:53.366Z,100607.98
2018-12-09T01:59:22.014Z,100569.73
2018-12-09T02:01:50.659Z,100570.39
2018-12-09T02:04:19.711Z,100562.06
2018-12-09T02:06:48.370Z,100566.33
2018-12-09T02:09:17.166Z,100575.39
2018-12-09T02:11:46.064Z,100584.41
2018-12-09T02:14:14.702Z,100561.73
2018-12-09T02:16:43.482Z,100577.73
2018-12-09T02:19:18.515Z,100586.30
2018-12-09T02:21:47.377Z,100607.00
2018-12-09T02:24:16.672Z,100584.00
2018-12-09T02:26:45.570Z,100587.84
2018-12-09T02:29:14.218Z,100613.45
2018-12-09T02:31:42.913Z,100588.59
2018-12-09T02:34:11.764Z,100574.26
2018-12-09T02:36:40.997Z,100603.68
2018-12-09T02:39:11.704Z,100580.22
2018-12-09T02:41:40.369Z,100591.04
2018-12-09T02:44:09.013Z,100595.95
2018-12-09T02:46:38.009Z,100610.69
2018-12-09T02:49:06.650Z,100598.11
2018-12-09T02:51:35.434Z,100588.43
2018-12-09T02:54:04.220Z,100590.13
2018-12-09T02:56:32.877Z,100599.16
2018-12-09T02:59:02.095Z,100612.48
2018-12-09T03:01:30.737Z,100581.59
2018-12-09T03:03:59.368Z,100594.98
2018-12-09T03:06:28.023Z,100601.90
2018-12-09T03:08:56.789Z,100598.90
2018-12-09T03:11:25.424Z,100613.59
2018-12-09T03:13:54.016Z,100616.52
2018-12-09T03:16:22.901Z,100594.13
2018-12-09T03:18:51.518Z,100591.31
2018-12-09T03:21:20.127Z,100606.11
2018-12-09T03:23:48.738Z,100605.27
2018-12-09T03:26:17.379Z,100599.53
2018-12-09T03:28:45.990Z,100609.47
2018-12-09T03:31:14.740Z,100591.16
2018-12-09T03:33:43.395Z,100609.70
2018-12-09T03:36:12.019Z,100614.36
2018-12-09T03:38:40.668Z,100615.12
2018-12-09T03:41:09.490Z,100618.97
2018-12-09T03:43:38.560Z,100629.69
2018-12-09T03:46:07.326Z,100600.46
2018-12-09T03:48:35.941Z,100621.06
2018-12-09T03:51:04.589Z,100620.61
2018-12-09T03:53:33.534Z,100614.78
2018-12-09T03:56:02.174Z,100621.69
2018-12-09T03:58:30.845Z,100619.73
2018-12-09T04:00:59.583Z,100615.75
2018-12-09T04:03:28.239Z,100633.06
2018-12-09T04:05:56.830Z,100632.91
2018-12-09T04:08:25.524Z,100629.84
2018-12-09T04:10:54.132Z,100628.48
2018-12-09T04:13:22.761Z,100636.30
2018-12-09T04:15:51.383Z,100628.38
2018-12-09T04:18:19.994Z,100622.70
2018-12-09T04:20:48.640Z,100622.31
2018-12-09T04:23:17.267Z,100609.66
2018-12-09T04:25:45.882Z,100635.74
2018-12-09T04:28:15.051Z,100624.01
2018-12-09T04:30:43.789Z,100642.62
2018-12-09T04:33:12.416Z,100631.67
2018-12-09T04:35:41.046Z,100648.98
2018-12-09T04:38:09.664Z,100665.02
2018-12-09T04:40:38.312Z,100634.19
2018-12-09T04:43:06.965Z,100668.55
2018-12-09T04:45:35.580Z,100670.80
2018-12-09T04:48:04.221Z,100649.63
2018-12-09T04:50:33.352Z,100670.81
2018-12-09T04:53:02.087Z,100677.81
2018-12-09T04:55:31.359Z,100665.05
2018-12-09T04:57:59.990Z,100685.22
2018-12-09T05:00:39.735Z,100657.49
2018-12-09T05:03:08.488Z,100664.47
2018-12-09T05:05:37.089Z,100686.86
2018-12-09T05:08:05.734Z,100681.10
2018-12-09T05:10:34.374Z,100686.10
2018-12-09T05:13:03.178Z,100707.94
2018-12-09T05:15:31.968Z,100716.45
2018-12-09T05:18:00.570Z,100724.09
2018-12-09T05:20:29.199Z,100707.46
2018-12-09T05:22:57.831Z,100721.53
2018-12-09T05:25:27.674Z,100715.51
2018-12-09T05:27:56.444Z,100720.41
2018-12-09T05:30:25.675Z,100716.56
2018-12-09T05:32:55.273Z,100742.14
2018-12-09T05:35:25.666Z,100725.13
2018-12-09T05:37:54.297Z,100721.71
2018-12-09T05:40:23.478Z,100742.31
2018-12-09T05:42:52.102Z,100730.91
2018-12-09T05:45:20.711Z,100753.25
2018-12-09T05:47:49.331Z,100758.32
2018-12-09T05:50:17.978Z,100773.80
2018-12-09T05:52:47.202Z,100771.81
2018-12-09T05:55:15.846Z,100769.92
2018-12-09T05:57:45.003Z,100751.84
2018-12-09T06:00:13.646Z,100778.96
2018-12-09T06:02:53.327Z,100796.38
2018-12-09T06:05:22.022Z,100763.48
2018-12-09T06:07:51.435Z,100854.75
2018-12-09T06:10:20.079Z,100793.52
2018-12-09T06:12:48.721Z,100782.70
2018-12-09T06:15:17.357Z,100779.59
2018-12-09T06:17:45.970Z,100782.56
2018-12-09T06:20:14.650Z,100803.66
2018-12-09T06:22:43.282Z,100788.39
2018-12-09T06:25:11.926Z,100797.76
2018-12-09T06:27:40.580Z,100814.55
2018-12-09T06:30:10.835Z,100817.06
2018-12-09T06:32:39.546Z,100822.22
2018-12-09T06:35:08.869Z,100827.48
2018-12-09T06:37:37.519Z,100848.34
2018-12-09T06:40:07.003Z,100861.45
2018-12-09T06:42:36.086Z,100842.67
2018-12-09T06:45:05.746Z,100877.31
2018-12-09T06:47:34.329Z,100857.27
2018-12-09T06:50:03.163Z,100860.63
2018-12-09T06:52:31.818Z,100851.36
2018-12-09T06:55:00.460Z,100843.84
2018-12-09T06:57:29.091Z,100875.13
2018-12-09T06:59:58.912Z,100860.85
2018-12-09T07:02:27.578Z,100867.45
2018-12-09T07:04:56.206Z,100884.00
2018-12-09T07:07:24.858Z,100882.78
2018-12-09T07:09:53.518Z,100894.52
2018-12-09T07:12:22.137Z,100909.38
2018-12-09T07:14:50.761Z,100914.20
2018-12-09T07:17:19.399Z,100903.78
2018-12-09T07:19:48.080Z,100914.59
2018-12-09T07:22:16.671Z,100931.00
2018-12-09T07:24:45.294Z,100931.23
2018-12-09T07:27:14.398Z,100930.32
2018-12-09T07:29:43.033Z,100940.03
2018-12-09T07:32:11.635Z,100895.20
2018-12-09T07:34:40.262Z,100947.99
2018-12-09T07:37:09.862Z,100927.42
2018-12-09T07:39:38.458Z,100944.50
2018-12-09T07:42:07.102Z,100970.95
2018-12-09T07:44:35.744Z,100963.95
2018-12-09T07:47:04.402Z,100965.20
2018-12-09T07:49:33.014Z,100987.72
2018-12-09T07:52:01.943Z,101043.75
2018-12-09T07:54:30.902Z,101018.86
2018-12-09T07:56:59.517Z,101002.72
2018-12-09T07:59:28.198Z,101020.42
2018-12-09T08:01:56.956Z,101016.30
2018-12-09T08:04:25.615Z,101012.66
2018-12-09T08:06:54.239Z,101046.85
2018-12-09T08:09:22.870Z,101042.41
2018-12-09T08:11:51.522Z,101113.23
2018-12-09T08:14:20.247Z,101050.67
2018-12-09T08:16:48.901Z,101079.22
2018-12-09T08:19:17.557Z,101082.67
2018-12-09T08:21:46.172Z,101115.66
2018-12-09T08:24:14.805Z,101134.05
2018-12-09T08:26:43.488Z,101117.23
2018-12-09T08:29:12.135Z,101113.82
2018-12-09T08:31:41.047Z,101129.63
2018-12-09T08:34:09.785Z,101143.02
2018-12-09T08:36:38.424Z,101159.59
2018-12-09T08:39:07.210Z,101154.89
2018-12-09T08:41:35.838Z,101156.98
2018-12-09T08:44:04.506Z,101158.57
2018-12-09T08:46:33.150Z,101186.50
2018-12-09T08:49:01.840Z,101208.05
2018-12-09T08:51:30.610Z,101183.83
2018-12-09T08:53:59.336Z,101186.43
2018-12-09T08:56:28.342Z,101220.22
2018-12-09T08:58:56.985Z,101213.54
2018-12-09T09:01:25.660Z,101214.31
2018-12-09T09:03:54.542Z,101226.32
2018-12-09T09:06:23.195Z,101230.07
2018-12-09T09:08:51.808Z,101228.20
2018-12-09T09:11:20.930Z,101248.47
2018-12-09T09:13:49.597Z,101239.22
2018-12-09T09:16:18.205Z,101245.21
2018-12-09T09:18:46.823Z,101261.09
2018-12-09T09:21:15.479Z,101257.14
2018-12-09T09:23:44.161Z,101261.78
2018-12-09T09:26:12.771Z,101256.89
2018-12-09T09:28:42.957Z,101280.67
2018-12-09T09:31:11.764Z,101272.33
2018-12-09T09:33:40.433Z,101305.32
2018-12-09T09:36:09.199Z,101313.52
2018-12-09T09:38:37.878Z,101313.14
2018-12-09T09:41:06.489Z,101326.95
2018-12-09T09:43:35.106Z,101337.79
2018-12-09T09:46:03.782Z,101319.98
2018-12-09T09:48:32.396Z,101343.38
2018-12-09T09:51:01.013Z,101341.70
2018-12-09T09:53:29.658Z,101357.72
2018-12-09T09:55:58.272Z,101370.71
2018-12-09T09:58:26.898Z,101386.28
2018-12-09T10:00:55.516Z,101429.63
2018-12-09T10:03:25.975Z,101398.80
2018-12-09T10:05:54.891Z,101412.28
2018-12-09T10:08:24.196Z,101407.92
2018-12-09T10:10:52.814Z,101406.57
2018-12-09T10:13:21.456Z,101419.16
2018-12-09T10:15:50.205Z,101448.67
2018-12-09T10:18:18.845Z,101433.87
2018-12-09T10:20:47.477Z,101441.70
2018-12-09T10:23:16.212Z,101450.78
2018-12-09T10:25:44.911Z,101459.09
2018-12-09T10:28:13.527Z,101453.96
2018-12-09T10:30:42.131Z,101467.04
2018-12-09T10:33:10.775Z,101488.88
2018-12-09T10:35:39.473Z,101493.27
2018-12-09T10:38:08.126Z,101504.03
2018-12-09T10:40:36.780Z,101520.50
2018-12-09T10:43:05.387Z,101525.27
2018-12-09T10:45:34.002Z,101513.94
2018-12-09T10:48:02.615Z,101527.88
2018-12-09T10:50:31.239Z,101527.88
2018-12-09T10:52:59.894Z,101547.84
2018-12-09T10:55:28.543Z,101556.90
2018-12-09T10:57:57.199Z,101567.29
2018-12-09T11:00:31.064Z,101556.78
2018-12-09T11:03:00.462Z,101565.87
2018-12-09T11:05:29.066Z,101584.80
2018-12-09T11:07:57.725Z,101585.14
2018-12-09T11:10:26.366Z,101588.48
2018-12-09T11:12:55.038Z,101596.23
2018-12-09T11:15:23.692Z,101606.56
2018-12-09T11:17:52.309Z,101638.66
2018-12-09T11:20:20.975Z,101637.80
2018-12-09T11:22:49.607Z,101632.54
2018-12-09T11:25:18.240Z,101623.22
2018-12-09T11:27:46.847Z,101641.78
2018-12-09T11:30:15.501Z,101645.58
2018-12-09T11:32:44.126Z,101640.36
2018-12-09T11:35:12.779Z,101642.97
2018-12-09T11:37:41.410Z,101652.11
2018-12-09T11:40:10.032Z,101679.02
2018-12-09T11:42:38.698Z,101676.89
2018-12-09T11:45:07.530Z,101658.22
2018-12-09T11:47:36.181Z,101683.08
2018-12-09T11:50:05.477Z,101666.68
2018-12-09T11:52:34.138Z,101722.38
2018-12-09T11:55:02.756Z,101682.04
2018-12-09T11:57:31.368Z,101704.63
2018-12-09T12:00:00.006Z,101714.55
2018-12-09T12:02:28.620Z,101708.43
2018-12-09T12:04:57.265Z,101747.57
2018-12-09T12:07:25.878Z,101702.35
2018-12-09T12:09:54.508Z,101722.44
2018-12-09T12:12:23.162Z,101736.34
2018-12-09T12:14:51.769Z,101739.74
2018-12-09T12:17:20.430Z,101753.16
2018-12-09T12:19:49.043Z,101749.66
2018-12-09T12:22:17.693Z,101763.39
2018-12-09T12:24:46.325Z,101794.49
2018-12-09T12:27:14.979Z,101777.76
2018-12-09T12:29:43.632Z,101780.64
2018-12-09T12:32:12.299Z,101792.75
2018-12-09T12:34:40.935Z,101796.94
2018-12-09T12:37:09.533Z,101800.92
2018-12-09T12:39:38.194Z,101802.27
2018-12-09T12:42:06.837Z,101823.16
2018-12-09T12:44:35.753Z,101827.52
2018-12-09T12:47:04.531Z,101834.56
2018-12-09T12:49:33.367Z,101839.84
2018-12-09T12:52:02.397Z,101860.32
2018-12-09T12:54:31.047Z,101859.91
2018-12-09T12:56:59.754Z,101851.12
2018-12-09T12:59:28.396Z,101852.49
2018-12-09T13:01:57.023Z,101857.16
2018-12-09T13:04:25.647Z,101855.68
2018-12-09T13:06:54.371Z,101884.80
2018-12-09T13:09:22.985Z,101852.62
2018-12-09T13:11:51.731Z,101865.23
2018-12-09T13:14:20.653Z,101867.73
2018-12-09T13:16:49.467Z,101888.63
2018-12-09T13:19:18.187Z,101883.88
2018-12-09T13:21:46.806Z,101882.54
2018-12-09T13:24:15.430Z,101887.17
2018-12-09T13:26:44.040Z,101901.95
2018-12-09T13:29:12.832Z,101897.13
2018-12-09T13:31:41.430Z,101911.09
2018-12-09T13:34:10.066Z,101926.30
2018-12-09T13:36:39.570Z,101928.95
2018-12-09T13:39:08.306Z,101931.70
2018-12-09T13:41:36.943Z,101935.82
2018-12-09T13:44:05.603Z,101934.52
2018-12-09T13:46:34.242Z,101946.19
2018-12-09T13:49:02.981Z,101941.22
2018-12-09T13:51:31.671Z,101955.47
2018-12-09T13:54:00.571Z,101942.77
2018-12-09T13:56:29.207Z,101981.55
2018-12-09T13:58:57.822Z,101973.82
2018-12-09T14:01:26.524Z,101980.00
2018-12-09T14:03:55.229Z,101953.58
2018-12-09T14:06:23.969Z,101977.69
2018-12-09T14:08:52.578Z,101962.13
2018-12-09T14:11:21.328Z,101987.44
2018-12-09T14:13:49.977Z,101981.39
2018-12-09T14:16:19.022Z,101982.83
2018-12-09T14:18:47.863Z,101974.52
2018-12-09T14:21:16.543Z,101984.41
2018-12-09T14:23:45.166Z,101981.70
2018-12-09T14:26:13.826Z,101994.21
2018-12-09T14:28:42.435Z,102018.50
2018-12-09T14:31:11.046Z,102028.53
2018-12-09T14:33:39.651Z,102020.31
2018-12-09T14:36:08.642Z,102016.05
2018-12-09T14:38:37.919Z,102035.76
2018-12-09T14:41:06.530Z,102031.11
2018-12-09T14:43:35.160Z,102027.77
2018-12-09T14:46:03.831Z,102038.36
2018-12-09T14:48:32.458Z,102038.91
2018-12-09T14:51:01.050Z,102046.86
2018-12-09T14:53:29.650Z,102053.48
2018-12-09T14:55:58.262Z,102058.37
2018-12-09T14:58:26.898Z,102054.52
2018-12-09T15:00:55.518Z,102072.42
2018-12-09T15:03:24.150Z,102057.24
2018-12-09T15:05:52.786Z,102076.02
2018-12-09T15:08:21.469Z,102066.95
2018-12-09T15:10:50.104Z,102081.37
2018-12-09T15:13:18.774Z,102076.25
2018-12-09T15:15:47.424Z,102066.32
2018-12-09T15:18:16.070Z,102074.17
2018-12-09T15:20:44.718Z,102077.28
2018-12-09T15:23:13.711Z,102079.92
2018-12-09T15:25:42.340Z,102100.41
2018-12-09T15:28:10.959Z,102097.38
2018-12-09T15:30:39.827Z,102106.92
2018-12-09T15:33:08.476Z,102129.13
2018-12-09T15:35:37.121Z,102099.62
2018-12-09T15:38:05.808Z,102128.31
2018-12-09T15:40:34.480Z,102121.87
2018-12-09T15:43:03.243Z,102127.16
2018-12-09T15:45:31.926Z,102133.31
2018-12-09T15:48:00.580Z,102149.41
2018-12-09T15:50:29.197Z,102159.41
2018-12-09T15:52:57.850Z,102168.16
2018-12-09T15:55:27.029Z,102174.68
2018-12-09T15:57:55.658Z,102171.66
2018-12-09T16:00:26.316Z,102177.73
2018-12-09T16:02:54.927Z,102176.84
2018-12-09T16:05:23.580Z,102178.95
2018-12-09T16:07:52.275Z,102191.08
2018-12-09T16:10:20.955Z,102192.80
2018-12-09T16:12:49.657Z,102204.11
2018-12-09T16:15:18.324Z,102201.92
2018-12-09T16:17:47.007Z,102208.00
2018-12-09T16:20:15.701Z,102210.99
2018-12-09T16:22:46.352Z,102218.43
2018-12-09T16:25:15.154Z,102224.09
2018-12-09T16:27:44.737Z,102221.06
2018-12-09T16:30:14.070Z,102230.66
2018-12-09T16:32:43.636Z,102235.47
2018-12-09T16:35:12.446Z,102245.45
2018-12-09T16:37:42.112Z,102246.75
2018-12-09T16:40:10.858Z,102255.88
2018-12-09T16:42:40.179Z,102262.41
2018-12-09T16:45:09.066Z,102261.48
2018-12-09T16:47:39.191Z,102265.88
2018-12-09T16:50:08.327Z,102266.70
2018-12-09T16:52:37.011Z,102272.76
2018-12-09T16:55:05.975Z,102287.10
2018-12-09T16:57:34.701Z,102285.33
2018-12-09T17:00:03.426Z,102274.50
2018-12-09T17:02:32.366Z,102285.82
2018-12-09T17:05:01.089Z,102268.48
2018-12-09T17:07:29.776Z,102279.38
2018-12-09T17:09:58.489Z,102285.89
2018-12-09T17:12:27.285Z,102274.63
2018-12-09T17:14:55.966Z,102272.91
2018-12-09T17:17:24.598Z,102287.70
2018-12-09T17:19:53.266Z,102301.59
2018-12-09T17:22:21.881Z,102308.53
2018-12-09T17:24:51.006Z,102326.81
2018-12-09T17:27:20.330Z,102306.00
2018-12-09T17:29:49.025Z,102306.39
2018-12-09T17:32:17.741Z,102309.91
2018-12-09T17:34:47.253Z,102310.36
2018-12-09T17:37:15.907Z,102315.59
2018-12-09T17:39:45.351Z,102315.59
2018-12-09T17:42:14.045Z,102333.45
2018-12-09T17:44:43.064Z,102333.02
2018-12-09T17:47:11.727Z,102339.53
2018-12-09T17:49:40.428Z,102332.54
2018-12-09T17:52:09.144Z,102344.75
2018-12-09T17:54:37.857Z,102348.19
2018-12-09T17:57:06.498Z,102349.98
2018-12-09T17:59:35.150Z,102354.77
2018-12-09T18:02:05.286Z,102357.38
2018-12-09T18:04:33.927Z,102354.38
2018-12-09T18:07:02.654Z,102361.30
2018-12-09T18:09:31.306Z,102370.42
2018-12-09T18:11:59.952Z,102368.28
2018-12-09T18:14:28.576Z,102372.64
2018-12-09T18:16:57.265Z,102373.52
2018-12-09T18:19:25.890Z,102379.66
2018-12-09T18:21:54.538Z,102387.48
2018-12-09T18:24:23.352Z,102405.30
2018-12-09T18:26:52.006Z,102396.98
2018-12-09T18:29:20.653Z,102410.89
2018-12-09T18:31:49.292Z,102429.14
2018-12-09T18:34:17.976Z,102424.36
2018-12-09T18:36:46.650Z,102420.50
2018-12-09T18:39:15.309Z,102430.88
2018-12-09T18:41:44.577Z,102432.19
2018-12-09T18:44:14.049Z,102443.05
2018-12-09T18:46:42.702Z,102442.60
2018-12-09T18:49:11.315Z,102456.08
2018-12-09T18:51:40.126Z,102458.27
2018-12-09T18:54:08.954Z,102457.38
2018-12-09T18:56:37.658Z,102458.20
2018-12-09T18:59:06.499Z,102469.93
2018-12-09T19:01:35.299Z,102479.48
2018-12-09T19:04:04.801Z,102466.45
2018-12-09T19:06:33.493Z,102479.48
2018-12-09T19:09:02.167Z,102472.52
2018-12-09T19:11:32.705Z,102489.91
2018-12-09T19:14:01.348Z,102490.78
2018-12-09T19:16:30.052Z,102497.67
2018-12-09T19:18:58.711Z,102502.40
2018-12-09T19:21:27.361Z,102511.55
2018-12-09T19:23:56.032Z,102517.63
2018-12-09T19:26:24.664Z,102526.31
2018-12-09T19:28:53.341Z,102524.13
2018-12-09T19:31:21.982Z,102537.55
2018-12-09T19:33:50.639Z,102540.55
2018-12-09T19:36:19.254Z,102547.97
2018-12-09T19:39:01.091Z,102544.06
2018-12-09T19:41:29.719Z,102548.91
2018-12-09T19:43:58.361Z,102547.66
2018-12-09T19:46:27.057Z,102547.72
2018-12-09T19:48:55.682Z,102558.16
2018-12-09T19:51:24.357Z,102561.70
2018-12-09T19:53:53.008Z,102564.36
2018-12-09T19:56:21.674Z,102570.88
2018-12-09T19:58:50.463Z,102556.97
2018-12-09T20:01:21.666Z,102579.57
2018-12-09T20:03:50.446Z,102561.37
2018-12-09T20:06:19.146Z,102562.23
2018-12-09T20:08:47.954Z,102558.34
2018-12-09T20:11:16.719Z,102563.98
2018-12-09T20:13:45.388Z,102567.51
2018-12-09T20:16:14.082Z,102572.73
2018-12-09T20:18:42.938Z,102564.95
2018-12-09T20:21:11.754Z,102565.83
2018-12-09T20:23:40.434Z,102567.62
2018-12-09T20:26:09.181Z,102555.94
2018-12-09T20:28:37.895Z,102569.84
2018-12-09T20:31:06.576Z,102565.98
2018-12-09T20:33:35.316Z,102567.30
2018-12-09T20:36:04.023Z,102568.65
2018-12-09T20:38:32.679Z,102581.68
2018-12-09T20:41:01.331Z,102578.21
2018-12-09T20:43:30.015Z,102572.09
2018-12-09T20:45:58.776Z,102591.63
2018-12-09T20:48:27.439Z,102583.37
2018-12-09T20:50:56.102Z,102590.28
2018-12-09T20:53:24.742Z,102583.32
2018-12-09T20:55:54.011Z,102585.93
2018-12-09T20:58:22.655Z,102610.70
2018-12-09T21:00:51.375Z,102610.75
2018-12-09T21:03:20.032Z,102615.14
2018-12-09T21:05:48.710Z,102621.23
2018-12-09T21:08:17.778Z,102629.48
2018-12-09T21:10:46.411Z,102632.05
2018-12-09T21:13:15.078Z,102645.06
2018-12-09T21:15:43.779Z,102645.06
2018-12-09T21:18:12.502Z,102635.50
2018-12-09T21:20:41.198Z,102639.41
2018-12-09T21:23:10.702Z,102649.41
2018-12-09T21:25:39.456Z,102662.89
2018-12-09T21:28:08.267Z,102647.69
2018-12-09T21:30:36.981Z,102657.67
2018-12-09T21:33:05.686Z,102656.81
2018-12-09T21:35:35.310Z,102657.72
2018-12-09T21:38:03.997Z,102666.85
2018-12-09T21:40:32.603Z,102663.41
2018-12-09T21:43:01.210Z,102672.12
2018-12-09T21:45:29.819Z,102663.90
2018-12-09T21:47:58.437Z,102677.41
2018-12-09T21:50:27.047Z,102667.86
2018-12-09T21:52:55.702Z,102664.44
2018-12-09T21:55:24.393Z,102660.13
2018-12-09T21:57:53.072Z,102654.05
2018-12-09T22:00:21.794Z,102657.54
2018-12-09T22:02:50.454Z,102657.54
2018-12-09T22:05:19.122Z,102663.23
2018-12-09T22:07:47.827Z,102672.83
2018-12-09T22:10:16.526Z,102678.48
2018-12-09T22:12:45.234Z,102670.28
2018-12-09T22:15:14.051Z,102683.78
2018-12-09T22:17:42.665Z,102689.44
2018-12-09T22:20:11.501Z,102689.91
2018-12-09T22:22:40.328Z,102690.39
2018-12-09T22:25:09.035Z,102685.66
2018-12-09T22:27:37.758Z,102683.92
2018-12-09T22:30:06.730Z,102682.19
2018-12-09T22:32:35.485Z,102693.48
2018-12-09T22:35:04.570Z,102688.70
2018-12-09T22:37:33.387Z,102690.87
2018-12-09T22:40:02.047Z,102689.56
2018-12-09T22:42:31.036Z,102693.00
2018-12-09T22:44:59.806Z,102707.33
2018-12-09T22:47:28.565Z,102698.60
2018-12-09T22:49:57.173Z,102706.42
2018-12-09T22:52:25.778Z,102712.06
2018-12-09T22:54:54.409Z,102702.94
2018-12-09T22:57:23.062Z,102706.85
2018-12-09T22:59:51.683Z,102695.98
2018-12-09T23:02:25.402Z,102697.69
2018-12-09T23:04:54.046Z,102707.28
2018-12-09T23:07:27.776Z,102713.33
2018-12-09T23:09:56.387Z,102722.44
2018-12-09T23:12:25.070Z,102719.41
2018-12-09T23:14:53.686Z,102727.66
2018-12-09T23:17:22.278Z,102745.94
2018-12-09T23:19:50.911Z,102726.88
2018-12-09T23:22:19.565Z,102738.59
2018-12-09T23:24:48.348Z,102727.34
2018-12-09T23:27:16.978Z,102726.91
2018-12-09T23:29:45.586Z,102729.95
2018-12-09T23:32:14.206Z,102727.78
2018-12-09T23:34:42.861Z,102727.74
2018-12-09T23:37:11.481Z,102732.55
2018-12-09T23:39:40.109Z,102731.25
2018-12-09T23:42:08.743Z,102745.16
2018-12-09T23:44:37.497Z,102740.80
2018-12-09T23:47:06.146Z,102739.52
2018-12-09T23:49:34.790Z,102760.83
2018-12-09T23:52:03.398Z,102749.11
2018-12-09T23:54:32.060Z,102745.25
2018-12-09T23:57:00.682Z,102744.38
2018-12-09T23:59:29.314Z,102743.98
